createdAt,value
2022-11-30T00:01:31.512Z,9.06
2022-11-30T00:03:59.750Z,9.11
2022-11-30T00:06:27.746Z,9.13
2022-11-30T00:08:59.083Z,9.16
2022-11-30T00:11:28.732Z,9.22
2022-11-30T00:13:57.042Z,9.25
2022-11-30T00:16:27.600Z,9.27
2022-11-30T00:18:56.111Z,9.26
2022-11-30T00:21:26.716Z,9.26
2022-11-30T00:23:54.478Z,9.26
2022-11-30T00:26:23.000Z,9.27
2022-11-30T00:28:51.164Z,9.21
2022-11-30T00:31:20.970Z,9.13
2022-11-30T00:33:48.935Z,9.07
2022-11-30T00:36:22.149Z,9.01
2022-11-30T00:38:51.732Z,8.98
2022-11-30T00:41:21.266Z,8.96
2022-11-30T00:43:49.174Z,8.94
2022-11-30T00:46:17.661Z,8.96
2022-11-30T00:48:45.406Z,9.06
2022-11-30T00:51:13.569Z,9.15
2022-11-30T00:53:42.200Z,9.24
2022-11-30T00:56:11.073Z,9.31
2022-11-30T00:58:38.597Z,9.26
2022-11-30T01:01:07.830Z,9.27
2022-11-30T01:03:36.458Z,9.25
2022-11-30T01:06:09.870Z,9.20
2022-11-30T01:08:37.613Z,9.14
2022-11-30T01:11:17.275Z,9.12
2022-11-30T01:13:44.872Z,8.98
2022-11-30T01:16:17.064Z,8.96
2022-11-30T01:18:46.211Z,8.97
2022-11-30T01:21:19.257Z,9.06
2022-11-30T01:23:48.017Z,9.08
2022-11-30T01:26:17.121Z,9.06
2022-11-30T01:28:49.526Z,9.06
2022-11-30T01:31:17.584Z,9.07
2022-11-30T01:33:54.109Z,9.15
2022-11-30T01:36:25.929Z,9.20
2022-11-30T01:38:56.588Z,9.19
2022-11-30T01:41:31.177Z,9.18
2022-11-30T01:44:20.282Z,9.14
2022-11-30T01:46:54.305Z,9.04
2022-11-30T01:49:30.710Z,8.99
2022-11-30T01:52:04.689Z,8.89
2022-11-30T01:54:49.787Z,8.83
2022-11-30T01:57:57.443Z,8.75
2022-11-30T02:00:25.086Z,8.70
2022-11-30T02:03:40.969Z,8.69
2022-11-30T02:06:08.748Z,8.64
2022-11-30T02:08:36.686Z,8.60
2022-11-30T02:11:09.962Z,8.56
2022-11-30T02:14:21.236Z,8.51
2022-11-30T02:17:19.380Z,8.43
2022-11-30T02:19:57.005Z,8.39
2022-11-30T02:22:39.036Z,8.41
2022-11-30T02:26:03.554Z,8.42
2022-11-30T02:28:43.646Z,8.36
2022-11-30T02:31:18.690Z,8.34
2022-11-30T02:33:49.153Z,8.24
2022-11-30T02:36:21.003Z,8.20
2022-11-30T02:38:48.974Z,8.22
2022-11-30T02:41:16.861Z,8.22
2022-11-30T02:43:45.045Z,8.18
2022-11-30T02:46:19.069Z,8.11
2022-11-30T02:49:01.724Z,8.09
2022-11-30T02:51:32.261Z,8.08
2022-11-30T02:54:00.103Z,8.08
2022-11-30T02:56:29.357Z,8.09
2022-11-30T02:58:56.927Z,8.13
2022-11-30T03:01:25.409Z,8.15
2022-11-30T03:03:53.142Z,8.19
2022-11-30T03:06:20.990Z,8.11
2022-11-30T03:08:48.533Z,8.08
2022-11-30T03:11:16.303Z,8.11
2022-11-30T03:13:43.806Z,8.15
2022-11-30T03:16:13.453Z,8.18
2022-11-30T03:18:41.500Z,8.15
2022-11-30T03:21:12.106Z,8.11
2022-11-30T03:23:39.947Z,8.06
2022-11-30T03:26:09.403Z,8.00
2022-11-30T03:28:37.830Z,7.94
2022-11-30T03:31:06.138Z,7.91
2022-11-30T03:33:33.804Z,7.90
2022-11-30T03:36:07.722Z,7.86
2022-11-30T03:38:35.540Z,7.76
2022-11-30T03:41:14.276Z,7.72
2022-11-30T03:43:42.405Z,7.72
2022-11-30T03:46:10.677Z,7.73
2022-11-30T03:48:39.013Z,7.74
2022-11-30T03:51:07.831Z,7.77
2022-11-30T03:53:35.689Z,7.77
2022-11-30T03:56:07.616Z,7.77
2022-11-30T03:58:36.427Z,7.79
2022-11-30T04:01:17.009Z,7.66
2022-11-30T04:03:44.872Z,7.62
2022-11-30T04:06:13.278Z,7.60
2022-11-30T04:08:41.932Z,7.58
2022-11-30T04:11:10.613Z,7.55
2022-11-30T04:13:41.132Z,7.49
2022-11-30T04:16:09.893Z,7.49
2022-11-30T04:18:38.962Z,7.46
2022-11-30T04:21:08.026Z,7.48
2022-11-30T04:23:39.214Z,7.54
2022-11-30T04:26:12.432Z,7.48
2022-11-30T04:28:40.561Z,7.53
2022-11-30T04:31:09.597Z,7.58
2022-11-30T04:33:37.515Z,7.63
2022-11-30T04:36:08.252Z,7.67
2022-11-30T04:38:37.572Z,7.76
2022-11-30T04:41:09.333Z,7.79
2022-11-30T04:43:37.231Z,7.77
2022-11-30T04:46:06.601Z,7.81
2022-11-30T04:48:34.639Z,7.84
2022-11-30T04:51:08.284Z,7.91
2022-11-30T04:53:38.199Z,7.94
2022-11-30T04:56:09.029Z,7.95
2022-11-30T04:58:37.095Z,7.95
2022-11-30T05:01:05.281Z,7.98
2022-11-30T05:03:32.853Z,7.97
2022-11-30T05:06:00.713Z,7.94
2022-11-30T05:08:28.385Z,7.94
2022-11-30T05:10:56.435Z,7.93
2022-11-30T05:13:25.918Z,7.94
2022-11-30T05:15:54.405Z,7.95
2022-11-30T05:18:22.468Z,7.95
2022-11-30T05:20:51.984Z,7.95
2022-11-30T05:23:20.648Z,7.95
2022-11-30T05:25:49.351Z,7.93
2022-11-30T05:28:16.937Z,7.91
2022-11-30T05:30:45.233Z,7.95
2022-11-30T05:33:13.043Z,8.26
2022-11-30T05:35:41.100Z,8.70
2022-11-30T05:38:08.622Z,9.24
2022-11-30T05:40:37.171Z,9.69
2022-11-30T05:43:06.282Z,10.12
2022-11-30T05:45:34.033Z,10.51
2022-11-30T05:48:01.620Z,10.78
2022-11-30T05:50:29.615Z,11.14
2022-11-30T05:52:57.468Z,11.41
2022-11-30T05:55:25.721Z,11.35
2022-11-30T05:57:54.102Z,10.96
2022-11-30T06:00:22.588Z,10.53
2022-11-30T06:02:58.559Z,10.02
2022-11-30T06:05:27.403Z,9.59
2022-11-30T06:07:55.795Z,9.27
2022-11-30T06:10:25.785Z,9.05
2022-11-30T06:12:53.394Z,8.79
2022-11-30T06:15:21.319Z,8.60
2022-11-30T06:17:48.875Z,8.46
2022-11-30T06:20:16.793Z,8.31
2022-11-30T06:22:47.704Z,8.18
2022-11-30T06:25:15.633Z,8.06
2022-11-30T06:27:43.709Z,7.99
2022-11-30T06:30:13.047Z,7.96
2022-11-30T06:32:44.102Z,7.93
2022-11-30T06:35:12.188Z,7.89
2022-11-30T06:37:39.692Z,7.86
2022-11-30T06:40:10.135Z,7.88
2022-11-30T06:42:38.547Z,7.86
2022-11-30T06:45:08.234Z,7.88
2022-11-30T06:47:36.003Z,7.92
2022-11-30T06:50:05.342Z,7.83
2022-11-30T06:52:33.322Z,7.83
2022-11-30T06:55:01.266Z,7.86
2022-11-30T06:57:30.235Z,7.91
2022-11-30T06:59:58.398Z,7.94
2022-11-30T07:02:26.038Z,7.96
2022-11-30T07:04:53.953Z,8.00
2022-11-30T07:07:21.585Z,8.00
2022-11-30T07:09:51.097Z,8.02
2022-11-30T07:12:18.667Z,8.01
2022-11-30T07:14:46.656Z,8.06
2022-11-30T07:17:14.557Z,8.17
2022-11-30T07:19:42.392Z,8.19
2022-11-30T07:22:10.153Z,8.21
2022-11-30T07:24:56.518Z,8.24
2022-11-30T07:27:24.863Z,8.27
2022-11-30T07:29:52.938Z,8.31
2022-11-30T07:32:20.741Z,8.39
2022-11-30T07:34:48.851Z,8.61
2022-11-30T07:37:16.643Z,8.77
2022-11-30T07:39:44.430Z,8.83
2022-11-30T07:42:12.000Z,8.90
2022-11-30T07:44:39.922Z,8.91
2022-11-30T07:47:07.378Z,8.90
2022-11-30T07:49:35.435Z,8.89
2022-11-30T07:52:04.697Z,8.88
2022-11-30T07:54:32.619Z,8.92
2022-11-30T07:57:00.195Z,8.95
2022-11-30T07:59:28.099Z,8.94
2022-11-30T08:01:55.619Z,8.92
2022-11-30T08:04:23.722Z,8.91
2022-11-30T08:06:53.661Z,8.89
2022-11-30T08:09:21.747Z,8.87
2022-11-30T08:11:50.955Z,8.78
2022-11-30T08:14:18.854Z,8.74
2022-11-30T08:16:46.392Z,8.77
2022-11-30T08:19:14.462Z,8.85
2022-11-30T08:21:41.994Z,8.92
2022-11-30T08:24:14.131Z,8.97
2022-11-30T08:26:42.153Z,9.07
2022-11-30T08:29:13.515Z,9.10
2022-11-30T08:31:41.060Z,9.20
2022-11-30T08:34:12.924Z,9.46
2022-11-30T08:36:41.891Z,9.66
2022-11-30T08:39:12.718Z,9.81
2022-11-30T08:41:40.422Z,9.90
2022-11-30T08:44:08.528Z,10.02
2022-11-30T08:46:53.432Z,10.04
2022-11-30T08:54:58.893Z,9.96
2022-11-30T08:57:26.947Z,9.91
2022-11-30T08:59:54.707Z,9.81
2022-11-30T09:02:22.206Z,9.71
2022-11-30T09:04:51.794Z,9.65
2022-11-30T09:07:20.054Z,9.67
2022-11-30T09:09:48.063Z,9.77
2022-11-30T09:12:15.713Z,9.72
2022-11-30T09:14:45.159Z,9.66
2022-11-30T09:17:12.770Z,9.66
2022-11-30T09:19:40.614Z,9.65
2022-11-30T09:22:08.164Z,9.64
2022-11-30T09:24:38.179Z,9.62
2022-11-30T09:27:05.849Z,9.59
2022-11-30T09:29:33.715Z,9.54
2022-11-30T09:32:01.220Z,9.53
2022-11-30T09:34:29.120Z,9.62
2022-11-30T09:36:56.643Z,9.67
2022-11-30T09:39:24.574Z,9.71
2022-11-30T09:42:25.175Z,9.64
2022-11-30T09:45:02.399Z,9.54
2022-11-30T09:47:54.705Z,9.50
2022-11-30T09:50:28.690Z,9.55
2022-11-30T09:53:05.422Z,9.56
2022-11-30T09:55:41.668Z,9.65
2022-11-30T09:58:32.463Z,9.68
2022-11-30T10:01:03.749Z,9.62
2022-11-30T10:03:34.505Z,9.58
2022-11-30T10:06:11.810Z,9.49
2022-11-30T10:08:56.187Z,9.48
2022-11-30T10:11:50.908Z,9.54
2022-11-30T10:14:38.480Z,9.63
2022-11-30T10:17:26.827Z,9.72
2022-11-30T10:20:42.341Z,9.72
2022-11-30T10:23:42.357Z,9.74
2022-11-30T10:26:20.568Z,9.90
2022-11-30T10:28:58.127Z,9.98
2022-11-30T10:31:38.153Z,10.02
2022-11-30T10:34:26.251Z,10.05
2022-11-30T10:37:20.024Z,10.18
2022-11-30T10:40:01.828Z,10.37
2022-11-30T10:42:52.559Z,10.56
2022-11-30T10:45:25.636Z,10.64
2022-11-30T10:48:15.500Z,10.69
2022-11-30T10:50:43.460Z,10.69
2022-11-30T10:53:13.062Z,10.65
2022-11-30T10:56:02.951Z,10.63
2022-11-30T10:58:42.126Z,10.67
2022-11-30T11:01:28.462Z,10.65
2022-11-30T11:04:19.014Z,10.73
2022-11-30T11:07:24.059Z,10.79
2022-11-30T11:09:53.579Z,10.89
2022-11-30T11:12:26.258Z,10.79
2022-11-30T11:15:21.139Z,10.73
2022-11-30T11:17:50.631Z,10.76
2022-11-30T11:20:32.720Z,10.87
2022-11-30T11:23:03.898Z,10.95
2022-11-30T11:25:37.470Z,10.93
2022-11-30T11:28:14.515Z,10.90
2022-11-30T11:30:42.285Z,10.98
2022-11-30T11:33:13.060Z,11.13
2022-11-30T11:35:49.565Z,11.17
2022-11-30T11:38:21.603Z,11.18
2022-11-30T11:40:57.085Z,11.26
2022-11-30T11:43:40.835Z,11.26
2022-11-30T11:46:14.188Z,11.15
2022-11-30T11:49:04.033Z,11.08
2022-11-30T11:51:41.814Z,11.13
2022-11-30T11:54:35.559Z,11.14
2022-11-30T11:57:03.161Z,11.14
2022-11-30T12:00:05.509Z,11.12
2022-11-30T12:03:13.431Z,11.12
2022-11-30T12:05:47.861Z,11.14
2022-11-30T12:08:41.976Z,11.12
2022-11-30T12:11:20.163Z,11.05
2022-11-30T12:13:48.225Z,11.06
2022-11-30T12:17:05.408Z,10.94
2022-11-30T12:19:47.279Z,10.94
2022-11-30T12:22:34.928Z,10.90
2022-11-30T12:25:30.142Z,10.89
2022-11-30T12:28:57.791Z,10.87
2022-11-30T12:31:56.471Z,10.73
2022-11-30T12:34:32.866Z,10.76
2022-11-30T12:37:30.340Z,10.79
2022-11-30T12:40:46.162Z,10.83
2022-11-30T12:43:38.085Z,10.80
2022-11-30T12:47:08.181Z,10.76
2022-11-30T12:50:21.378Z,10.75
2022-11-30T12:53:13.527Z,10.72
2022-11-30T12:56:07.335Z,10.83
2022-11-30T12:59:02.390Z,10.92
2022-11-30T13:01:52.487Z,10.99
2022-11-30T13:04:36.873Z,10.94
2022-11-30T13:07:43.227Z,10.87
2022-11-30T13:10:37.214Z,10.85
2022-11-30T13:13:06.332Z,10.79
2022-11-30T13:15:35.409Z,10.77
2022-11-30T13:18:03.791Z,10.77
2022-11-30T13:20:49.641Z,10.72
2022-11-30T13:23:38.225Z,10.71
2022-11-30T13:26:48.015Z,10.72
2022-11-30T13:29:51.024Z,10.62
2022-11-30T13:32:55.989Z,10.47
2022-11-30T13:35:29.607Z,10.54
2022-11-30T13:41:07.337Z,10.67
2022-11-30T13:43:47.887Z,10.72
2022-11-30T13:46:25.730Z,10.77
2022-11-30T13:49:23.679Z,10.75
2022-11-30T13:52:13.614Z,10.73
2022-11-30T13:54:58.349Z,10.77
2022-11-30T13:57:28.648Z,10.76
2022-11-30T14:00:23.998Z,10.73
2022-11-30T14:02:58.058Z,10.70
2022-11-30T14:05:39.939Z,10.64
2022-11-30T14:08:07.526Z,10.57
2022-11-30T14:10:41.951Z,10.55
2022-11-30T14:13:09.817Z,10.45
2022-11-30T14:15:43.116Z,10.39
2022-11-30T14:18:10.479Z,10.33
2022-11-30T14:21:13.199Z,10.28
2022-11-30T14:23:53.187Z,10.18
2022-11-30T14:26:45.891Z,10.04
2022-11-30T14:29:23.409Z,9.86
2022-11-30T14:32:35.313Z,9.74
2022-11-30T14:35:20.000Z,9.64
2022-11-30T14:37:58.700Z,9.56
2022-11-30T14:40:33.551Z,9.47
2022-11-30T14:43:04.151Z,9.33
2022-11-30T14:45:37.014Z,9.33
2022-11-30T14:48:06.821Z,9.29
2022-11-30T14:50:35.457Z,9.19
2022-11-30T14:53:30.924Z,9.02
2022-11-30T14:56:30.460Z,8.87
2022-11-30T14:59:41.587Z,8.79
2022-11-30T15:02:28.418Z,8.79
2022-11-30T15:04:58.743Z,8.87
2022-11-30T15:07:27.820Z,8.95
2022-11-30T15:10:18.538Z,9.10
2022-11-30T15:12:46.582Z,9.20
2022-11-30T15:15:19.110Z,9.28
2022-11-30T15:18:10.519Z,9.30
2022-11-30T15:20:42.206Z,9.31
2022-11-30T15:23:15.260Z,9.24
2022-11-30T15:25:50.802Z,9.15
2022-11-30T15:28:37.958Z,9.16
2022-11-30T15:31:12.972Z,9.09
2022-11-30T15:33:47.722Z,9.01
2022-11-30T15:36:32.043Z,8.95
2022-11-30T15:39:06.391Z,8.99
2022-11-30T15:41:36.209Z,9.08
2022-11-30T15:44:04.030Z,9.06
2022-11-30T15:46:46.139Z,9.04
2022-11-30T15:49:18.406Z,8.99
2022-11-30T15:51:57.831Z,9.06
2022-11-30T15:54:55.263Z,9.08
2022-11-30T15:57:27.098Z,9.09
2022-11-30T16:00:24.388Z,9.09
2022-11-30T16:03:13.598Z,9.12
2022-11-30T16:05:53.506Z,9.10
2022-11-30T16:08:21.542Z,8.96
2022-11-30T16:10:49.409Z,8.84
2022-11-30T16:13:20.198Z,8.79
2022-11-30T16:15:51.135Z,8.73
2022-11-30T16:18:29.334Z,8.80
2022-11-30T16:21:01.617Z,8.94
2022-11-30T16:23:30.217Z,9.08
2022-11-30T16:25:57.759Z,9.17
2022-11-30T16:28:26.593Z,9.11
2022-11-30T16:30:59.830Z,9.05
2022-11-30T16:33:30.558Z,8.94
2022-11-30T16:36:04.454Z,8.90
2022-11-30T16:38:33.276Z,8.83
2022-11-30T16:41:20.787Z,8.71
2022-11-30T16:43:51.797Z,8.72
2022-11-30T16:46:26.550Z,8.71
2022-11-30T16:48:55.512Z,8.73
2022-11-30T16:51:34.533Z,8.77
2022-11-30T16:54:02.405Z,8.79
2022-11-30T16:56:31.262Z,8.77
2022-11-30T16:59:01.292Z,8.85
2022-11-30T17:01:47.268Z,8.99
2022-11-30T17:04:23.008Z,8.98
2022-11-30T17:06:55.886Z,8.83
2022-11-30T17:09:27.340Z,8.67
2022-11-30T17:11:55.283Z,8.58
2022-11-30T17:14:23.207Z,8.43
2022-11-30T17:16:50.862Z,8.33
2022-11-30T17:19:19.014Z,8.27
2022-11-30T17:21:48.337Z,8.19
2022-11-30T17:24:16.345Z,8.08
2022-11-30T17:26:43.921Z,8.01
2022-11-30T17:29:11.828Z,8.00
2022-11-30T17:31:39.634Z,7.98
2022-11-30T17:34:08.830Z,7.97
2022-11-30T17:36:36.433Z,8.04
2022-11-30T17:39:08.524Z,8.04
2022-11-30T17:41:36.083Z,7.98
2022-11-30T17:44:04.089Z,8.16
2022-11-30T17:46:32.508Z,8.17
2022-11-30T17:49:00.299Z,8.12
2022-11-30T17:51:28.056Z,8.05
2022-11-30T17:53:56.307Z,8.00
2022-11-30T17:56:24.607Z,8.03
2022-11-30T17:58:52.512Z,8.04
2022-11-30T18:01:26.768Z,8.11
2022-11-30T18:03:56.512Z,8.14
2022-11-30T18:06:24.467Z,8.12
2022-11-30T18:08:52.647Z,8.10
2022-11-30T18:11:23.715Z,8.04
2022-11-30T18:13:54.995Z,8.03
2022-11-30T18:16:26.490Z,8.06
2022-11-30T18:18:56.715Z,8.11
2022-11-30T18:21:27.560Z,8.18
2022-11-30T18:23:57.080Z,8.36
2022-11-30T18:26:26.470Z,8.56
2022-11-30T18:29:00.200Z,8.65
2022-11-30T18:31:30.264Z,8.72
2022-11-30T18:34:02.262Z,8.74
2022-11-30T18:36:30.957Z,8.79
2022-11-30T18:38:59.062Z,8.78
2022-11-30T18:41:28.579Z,8.80
2022-11-30T18:43:57.505Z,8.87
2022-11-30T18:46:25.551Z,8.93
2022-11-30T18:48:54.668Z,8.93
2022-11-30T18:51:29.219Z,8.97
2022-11-30T18:54:08.316Z,9.07
2022-11-30T18:56:38.169Z,9.03
2022-11-30T18:59:08.626Z,8.91
2022-11-30T19:01:37.204Z,8.76
2022-11-30T19:04:10.593Z,8.78
2022-11-30T19:06:40.881Z,8.82
2022-11-30T19:09:14.865Z,8.73
2022-11-30T19:11:43.500Z,8.61
2022-11-30T19:14:15.067Z,8.60
2022-11-30T19:16:43.581Z,8.61
2022-11-30T19:19:14.181Z,8.57
2022-11-30T19:21:45.414Z,8.48
2022-11-30T19:24:14.513Z,8.35
2022-11-30T19:26:42.096Z,8.24
2022-11-30T19:29:12.374Z,8.15
2022-11-30T19:31:42.513Z,8.07
2022-11-30T19:34:12.859Z,7.98
2022-11-30T19:36:41.605Z,7.88
2022-11-30T19:39:10.959Z,7.85
2022-11-30T19:41:38.673Z,7.74
2022-11-30T19:44:06.564Z,7.68
2022-11-30T19:46:34.579Z,7.66
2022-11-30T19:49:02.981Z,7.63
2022-11-30T19:51:31.709Z,7.60
2022-11-30T19:54:01.926Z,7.56
2022-11-30T19:56:34.252Z,7.57
2022-11-30T19:59:06.040Z,7.55
2022-11-30T20:01:35.238Z,7.53
2022-11-30T20:04:04.144Z,7.55
2022-11-30T20:06:37.147Z,7.56
2022-11-30T20:09:07.408Z,7.68
2022-11-30T20:11:35.591Z,7.73
2022-11-30T20:14:04.404Z,7.70
2022-11-30T20:16:32.673Z,7.74
2022-11-30T20:19:02.760Z,7.83
2022-11-30T20:21:35.524Z,7.82
2022-11-30T20:24:07.685Z,7.69
2022-11-30T20:26:41.581Z,7.64
2022-11-30T20:29:15.650Z,7.68
2022-11-30T20:31:45.801Z,7.71
2022-11-30T20:34:13.854Z,7.67
2022-11-30T20:36:41.316Z,7.63
2022-11-30T20:39:11.405Z,7.56
2022-11-30T20:41:38.968Z,7.55
2022-11-30T20:44:06.945Z,7.60
2022-11-30T20:46:36.059Z,7.61
2022-11-30T20:49:12.844Z,7.66
2022-11-30T20:51:40.477Z,7.68
2022-11-30T20:54:08.490Z,7.73
2022-11-30T20:56:37.432Z,7.77
2022-11-30T20:59:09.678Z,7.81
2022-11-30T21:01:37.356Z,7.82
2022-11-30T21:04:05.346Z,7.83
2022-11-30T21:06:34.540Z,7.85
2022-11-30T21:09:05.427Z,7.88
2022-11-30T21:11:34.564Z,7.89
2022-11-30T21:14:02.853Z,7.86
2022-11-30T21:16:30.676Z,7.83
2022-11-30T21:19:00.255Z,7.85
2022-11-30T21:21:35.034Z,7.98
2022-11-30T21:24:06.934Z,8.14
2022-11-30T21:26:38.836Z,8.17
2022-11-30T21:29:19.103Z,8.15
2022-11-30T21:31:47.129Z,8.12
2022-11-30T21:34:15.459Z,8.17
2022-11-30T21:36:43.322Z,8.22
2022-11-30T21:39:15.837Z,8.35
2022-11-30T21:41:43.896Z,8.47
2022-11-30T21:44:14.197Z,8.54
2022-11-30T21:46:43.199Z,8.53
2022-11-30T21:49:11.887Z,8.51
2022-11-30T21:51:41.057Z,8.45
2022-11-30T21:54:14.801Z,8.49
2022-11-30T21:56:44.851Z,8.49
2022-11-30T21:59:17.214Z,8.37
2022-11-30T22:01:45.996Z,8.27
2022-11-30T22:04:15.015Z,8.19
2022-11-30T22:06:43.381Z,8.13
2022-11-30T22:09:17.183Z,8.05
2022-11-30T22:11:46.128Z,7.99
2022-11-30T22:14:16.635Z,7.89
2022-11-30T22:16:45.085Z,7.79
2022-11-30T22:19:13.657Z,7.74
2022-11-30T22:21:46.708Z,7.69
2022-11-30T22:24:16.366Z,7.62
2022-11-30T22:26:49.097Z,7.54
2022-11-30T22:29:22.562Z,7.51
2022-11-30T22:31:53.455Z,7.47
2022-11-30T22:34:21.598Z,7.51
2022-11-30T22:36:49.953Z,7.52
2022-11-30T22:39:20.700Z,7.57
2022-11-30T22:41:54.542Z,7.62
2022-11-30T22:44:24.144Z,7.69
2022-11-30T22:46:51.831Z,7.84
2022-11-30T22:49:22.959Z,7.96
2022-11-30T22:51:51.450Z,8.19
2022-11-30T22:54:19.469Z,8.42
2022-11-30T22:56:47.232Z,8.43
2022-11-30T22:59:15.927Z,8.42
2022-11-30T23:01:47.450Z,8.32
2022-11-30T23:04:19.429Z,8.27
2022-11-30T23:06:48.824Z,8.32
2022-11-30T23:09:19.882Z,8.42
2022-11-30T23:11:47.979Z,8.29
2022-11-30T23:14:16.682Z,8.11
2022-11-30T23:16:45.805Z,7.97
2022-11-30T23:19:14.708Z,7.89
2022-11-30T23:21:45.063Z,7.80
2022-11-30T23:24:17.485Z,7.70
2022-11-30T23:26:46.088Z,7.65
2022-11-30T23:29:16.526Z,7.57
2022-11-30T23:31:46.331Z,7.48
2022-11-30T23:34:19.731Z,7.40
2022-11-30T23:36:48.914Z,7.29
2022-11-30T23:39:19.288Z,7.23
2022-11-30T23:41:47.044Z,7.17
2022-11-30T23:44:15.176Z,7.16
2022-11-30T23:46:42.861Z,7.19
2022-11-30T23:49:14.269Z,7.22
2022-11-30T23:51:42.908Z,7.23
2022-11-30T23:54:10.962Z,7.28
2022-11-30T23:56:38.682Z,7.24
2022-11-30T23:59:06.525Z,7.20
